sensor_id;sensor_type;location;lat;lon;timestamp;P1;durP1;ratioP1;P2;durP2;ratioP2
17365;SDS011;8800;50.118;9.900;2023-04-07T00:01:36;12.45;;;6.57;;
17365;SDS011;8800;50.118;9.900;2023-04-07T00:04:03;16.88;;;7.40;;
17365;SDS011;8800;50.118;9.900;2023-04-07T00:06:29;16.75;;;7.95;;
17365;SDS011;8800;50.118;9.900;2023-04-07T00:08:57;12.63;;;7.00;;
17365;SDS011;8800;50.118;9.900;2023-04-07T00:11:23;12.98;;;6.95;;
17365;SDS011;8800;50.118;9.900;2023-04-07T00:13:50;8.32;;;4.55;;
17365;SDS011;8800;50.118;9.900;2023-04-07T00:16:16;11.88;;;5.78;;
17365;SDS011;8800;50.118;9.900;2023-04-07T00:18:43;8.95;;;5.05;;
17365;SDS011;8800;50.118;9.900;2023-04-07T00:21:09;7.28;;;4.45;;
17365;SDS011;8800;50.118;9.900;2023-04-07T00:23:36;8.70;;;4.53;;
17365;SDS011;8800;50.118;9.900;2023-04-07T00:26:04;9.20;;;4.63;;
17365;SDS011;8800;50.118;9.900;2023-04-07T00:28:30;8.95;;;4.72;;
17365;SDS011;8800;50.118;9.900;2023-04-07T00:30:56;8.80;;;5.18;;
17365;SDS011;8800;50.118;9.900;2023-04-07T00:33:23;8.52;;;4.13;;
17365;SDS011;8800;50.118;9.900;2023-04-07T00:35:50;9.68;;;4.57;;
17365;SDS011;8800;50.118;9.900;2023-04-07T00:38:18;9.48;;;4.88;;
17365;SDS011;8800;50.118;9.900;2023-04-07T00:40:44;9.93;;;4.85;;
17365;SDS011;8800;50.118;9.900;2023-04-07T00:43:12;8.88;;;5.03;;
17365;SDS011;8800;50.118;9.900;2023-04-07T00:45:39;9.30;;;4.97;;
17365;SDS011;8800;50.118;9.900;2023-04-07T00:48:05;9.88;;;4.85;;
17365;SDS011;8800;50.118;9.900;2023-04-07T00:50:32;8.77;;;4.75;;
17365;SDS011;8800;50.118;9.900;2023-04-07T00:52:58;7.55;;;4.30;;
17365;SDS011;8800;50.118;9.900;2023-04-07T00:55:26;10.05;;;5.22;;
17365;SDS011;8800;50.118;9.900;2023-04-07T00:57:53;10.32;;;5.53;;
17365;SDS011;8800;50.118;9.900;2023-04-07T01:00:22;9.90;;;4.93;;
17365;SDS011;8800;50.118;9.900;2023-04-07T01:02:51;9.38;;;4.93;;
17365;SDS011;8800;50.118;9.900;2023-04-07T01:05:22;11.57;;;6.80;;
17365;SDS011;8800;50.118;9.900;2023-04-07T01:07:51;15.95;;;9.07;;
17365;SDS011;8800;50.118;9.900;2023-04-07T01:10:22;17.25;;;9.65;;
17365;SDS011;8800;50.118;9.900;2023-04-07T01:12:53;17.60;;;9.82;;
17365;SDS011;8800;50.118;9.900;2023-04-07T01:15:23;15.00;;;8.90;;
17365;SDS011;8800;50.118;9.900;2023-04-07T01:17:54;18.00;;;9.63;;
17365;SDS011;8800;50.118;9.900;2023-04-07T01:20:24;16.63;;;9.20;;
17365;SDS011;8800;50.118;9.900;2023-04-07T01:22:52;15.23;;;8.70;;
17365;SDS011;8800;50.118;9.900;2023-04-07T01:25:25;15.95;;;8.02;;
17365;SDS011;8800;50.118;9.900;2023-04-07T01:27:57;12.68;;;7.07;;
17365;SDS011;8800;50.118;9.900;2023-04-07T01:30:29;16.02;;;7.55;;
17365;SDS011;8800;50.118;9.900;2023-04-07T01:32:57;13.57;;;7.10;;
17365;SDS011;8800;50.118;9.900;2023-04-07T01:35:24;12.80;;;6.88;;
17365;SDS011;8800;50.118;9.900;2023-04-07T01:37:52;11.98;;;7.03;;
17365;SDS011;8800;50.118;9.900;2023-04-07T01:40:19;14.15;;;6.90;;
17365;SDS011;8800;50.118;9.900;2023-04-07T01:42:46;13.23;;;7.30;;
17365;SDS011;8800;50.118;9.900;2023-04-07T01:45:14;15.30;;;7.50;;
17365;SDS011;8800;50.118;9.900;2023-04-07T01:47:42;14.73;;;7.75;;
17365;SDS011;8800;50.118;9.900;2023-04-07T01:50:10;13.40;;;7.35;;
17365;SDS011;8800;50.118;9.900;2023-04-07T01:52:37;13.82;;;7.80;;
17365;SDS011;8800;50.118;9.900;2023-04-07T01:55:04;12.90;;;7.10;;
17365;SDS011;8800;50.118;9.900;2023-04-07T01:57:31;13.38;;;7.10;;
17365;SDS011;8800;50.118;9.900;2023-04-07T01:59:58;15.88;;;7.78;;
17365;SDS011;8800;50.118;9.900;2023-04-07T02:02:24;15.07;;;7.95;;
17365;SDS011;8800;50.118;9.900;2023-04-07T02:04:53;16.55;;;7.70;;
17365;SDS011;8800;50.118;9.900;2023-04-07T02:07:21;14.30;;;7.88;;
17365;SDS011;8800;50.118;9.900;2023-04-07T02:09:50;14.50;;;7.85;;
17365;SDS011;8800;50.118;9.900;2023-04-07T02:12:17;15.73;;;7.88;;
17365;SDS011;8800;50.118;9.900;2023-04-07T02:14:44;16.65;;;7.95;;
17365;SDS011;8800;50.118;9.900;2023-04-07T02:17:11;13.35;;;7.70;;
17365;SDS011;8800;50.118;9.900;2023-04-07T02:19:38;13.63;;;7.55;;
17365;SDS011;8800;50.118;9.900;2023-04-07T02:22:06;13.25;;;7.25;;
17365;SDS011;8800;50.118;9.900;2023-04-07T02:24:33;17.45;;;8.68;;
17365;SDS011;8800;50.118;9.900;2023-04-07T02:26:59;15.20;;;7.95;;
17365;SDS011;8800;50.118;9.900;2023-04-07T02:29:26;15.52;;;7.90;;
17365;SDS011;8800;50.118;9.900;2023-04-07T02:31:52;15.55;;;7.97;;
17365;SDS011;8800;50.118;9.900;2023-04-07T02:34:19;17.33;;;8.95;;
17365;SDS011;8800;50.118;9.900;2023-04-07T02:36:45;15.10;;;8.30;;
17365;SDS011;8800;50.118;9.900;2023-04-07T02:39:13;15.63;;;8.60;;
17365;SDS011;8800;50.118;9.900;2023-04-07T02:41:40;13.73;;;7.82;;
17365;SDS011;8800;50.118;9.900;2023-04-07T02:44:06;15.70;;;8.05;;
17365;SDS011;8800;50.118;9.900;2023-04-07T02:46:32;14.52;;;7.78;;
17365;SDS011;8800;50.118;9.900;2023-04-07T02:48:59;13.48;;;7.63;;
17365;SDS011;8800;50.118;9.900;2023-04-07T02:51:25;14.18;;;7.70;;
17365;SDS011;8800;50.118;9.900;2023-04-07T02:53:52;15.05;;;8.20;;
17365;SDS011;8800;50.118;9.900;2023-04-07T02:56:20;18.38;;;8.25;;
17365;SDS011;8800;50.118;9.900;2023-04-07T02:58:47;15.32;;;7.95;;
17365;SDS011;8800;50.118;9.900;2023-04-07T03:01:13;14.27;;;7.85;;
17365;SDS011;8800;50.118;9.900;2023-04-07T03:03:40;17.17;;;8.07;;
17365;SDS011;8800;50.118;9.900;2023-04-07T03:06:09;16.58;;;8.10;;
17365;SDS011;8800;50.118;9.900;2023-04-07T03:08:35;17.15;;;7.93;;
17365;SDS011;8800;50.118;9.900;2023-04-07T03:11:02;15.23;;;7.93;;
17365;SDS011;8800;50.118;9.900;2023-04-07T03:13:29;14.82;;;7.63;;
17365;SDS011;8800;50.118;9.900;2023-04-07T03:15:56;15.15;;;8.30;;
17365;SDS011;8800;50.118;9.900;2023-04-07T03:18:22;19.02;;;8.20;;
17365;SDS011;8800;50.118;9.900;2023-04-07T03:20:49;15.65;;;8.88;;
17365;SDS011;8800;50.118;9.900;2023-04-07T03:23:17;16.45;;;8.32;;
17365;SDS011;8800;50.118;9.900;2023-04-07T03:25:43;16.27;;;8.40;;
17365;SDS011;8800;50.118;9.900;2023-04-07T03:28:09;15.35;;;8.90;;
17365;SDS011;8800;50.118;9.900;2023-04-07T03:30:37;16.30;;;8.65;;
17365;SDS011;8800;50.118;9.900;2023-04-07T03:33:04;14.35;;;8.00;;
17365;SDS011;8800;50.118;9.900;2023-04-07T03:35:30;16.75;;;8.88;;
17365;SDS011;8800;50.118;9.900;2023-04-07T03:37:56;17.58;;;9.52;;
17365;SDS011;8800;50.118;9.900;2023-04-07T03:40:23;16.27;;;8.95;;
17365;SDS011;8800;50.118;9.900;2023-04-07T03:42:49;16.27;;;9.05;;
17365;SDS011;8800;50.118;9.900;2023-04-07T03:45:16;16.25;;;9.15;;
17365;SDS011;8800;50.118;9.900;2023-04-07T03:47:44;17.50;;;8.68;;
17365;SDS011;8800;50.118;9.900;2023-04-07T03:50:10;17.77;;;8.95;;
17365;SDS011;8800;50.118;9.900;2023-04-07T03:52:36;19.20;;;9.45;;
17365;SDS011;8800;50.118;9.900;2023-04-07T03:55:03;18.02;;;9.13;;
17365;SDS011;8800;50.118;9.900;2023-04-07T03:57:30;17.60;;;8.77;;
17365;SDS011;8800;50.118;9.900;2023-04-07T03:59:56;15.93;;;8.80;;
17365;SDS011;8800;50.118;9.900;2023-04-07T04:02:23;17.10;;;8.43;;
17365;SDS011;8800;50.118;9.900;2023-04-07T04:04:50;16.10;;;8.23;;
17365;SDS011;8800;50.118;9.900;2023-04-07T04:07:17;16.73;;;8.63;;
17365;SDS011;8800;50.118;9.900;2023-04-07T04:09:43;17.15;;;8.70;;
17365;SDS011;8800;50.118;9.900;2023-04-07T04:12:10;16.65;;;8.73;;
17365;SDS011;8800;50.118;9.900;2023-04-07T04:14:36;18.38;;;9.10;;
17365;SDS011;8800;50.118;9.900;2023-04-07T04:17:03;17.77;;;9.10;;
17365;SDS011;8800;50.118;9.900;2023-04-07T04:19:29;17.63;;;9.25;;
17365;SDS011;8800;50.118;9.900;2023-04-07T04:21:57;16.92;;;9.43;;
17365;SDS011;8800;50.118;9.900;2023-04-07T04:24:23;19.15;;;9.70;;
17365;SDS011;8800;50.118;9.900;2023-04-07T04:26:50;16.42;;;9.38;;
17365;SDS011;8800;50.118;9.900;2023-04-07T04:29:16;18.17;;;8.98;;
17365;SDS011;8800;50.118;9.900;2023-04-07T04:31:43;18.92;;;9.25;;
17365;SDS011;8800;50.118;9.900;2023-04-07T04:34:09;17.65;;;8.90;;
17365;SDS011;8800;50.118;9.900;2023-04-07T04:36:36;17.83;;;9.10;;
17365;SDS011;8800;50.118;9.900;2023-04-07T04:39:04;18.77;;;9.35;;
17365;SDS011;8800;50.118;9.900;2023-04-07T04:41:30;18.52;;;9.15;;
17365;SDS011;8800;50.118;9.900;2023-04-07T04:43:57;17.92;;;9.18;;
17365;SDS011;8800;50.118;9.900;2023-04-07T04:46:23;20.73;;;9.80;;
17365;SDS011;8800;50.118;9.900;2023-04-07T04:48:50;23.00;;;10.15;;
17365;SDS011;8800;50.118;9.900;2023-04-07T04:51:16;21.70;;;10.88;;
17365;SDS011;8800;50.118;9.900;2023-04-07T04:53:43;21.25;;;11.65;;
17365;SDS011;8800;50.118;9.900;2023-04-07T04:56:11;21.20;;;10.40;;
17365;SDS011;8800;50.118;9.900;2023-04-07T04:58:38;18.95;;;10.10;;
17365;SDS011;8800;50.118;9.900;2023-04-07T05:01:06;20.17;;;9.18;;
17365;SDS011;8800;50.118;9.900;2023-04-07T05:03:32;17.42;;;9.35;;
17365;SDS011;8800;50.118;9.900;2023-04-07T05:05:59;15.85;;;8.55;;
17365;SDS011;8800;50.118;9.900;2023-04-07T05:08:25;18.63;;;9.13;;
17365;SDS011;8800;50.118;9.900;2023-04-07T05:10:52;21.88;;;13.27;;
17365;SDS011;8800;50.118;9.900;2023-04-07T05:13:20;24.70;;;13.45;;
17365;SDS011;8800;50.118;9.900;2023-04-07T05:15:47;26.77;;;15.48;;
17365;SDS011;8800;50.118;9.900;2023-04-07T05:18:13;25.73;;;15.52;;
17365;SDS011;8800;50.118;9.900;2023-04-07T05:20:40;21.40;;;10.75;;
17365;SDS011;8800;50.118;9.900;2023-04-07T05:23:06;17.60;;;9.73;;
17365;SDS011;8800;50.118;9.900;2023-04-07T05:25:32;22.20;;;9.88;;
17365;SDS011;8800;50.118;9.900;2023-04-07T05:27:59;20.45;;;9.90;;
17365;SDS011;8800;50.118;9.900;2023-04-07T05:30:26;22.98;;;10.68;;
17365;SDS011;8800;50.118;9.900;2023-04-07T05:32:53;20.58;;;10.40;;
17365;SDS011;8800;50.118;9.900;2023-04-07T05:35:19;18.90;;;9.82;;
17365;SDS011;8800;50.118;9.900;2023-04-07T05:37:46;18.85;;;10.00;;
17365;SDS011;8800;50.118;9.900;2023-04-07T05:40:12;21.35;;;10.25;;
17365;SDS011;8800;50.118;9.900;2023-04-07T05:42:39;19.67;;;9.80;;
17365;SDS011;8800;50.118;9.900;2023-04-07T05:45:06;23.23;;;10.65;;
17365;SDS011;8800;50.118;9.900;2023-04-07T05:47:34;20.58;;;9.93;;
17365;SDS011;8800;50.118;9.900;2023-04-07T05:50:00;22.70;;;10.77;;
17365;SDS011;8800;50.118;9.900;2023-04-07T05:52:27;20.55;;;10.63;;
17365;SDS011;8800;50.118;9.900;2023-04-07T05:54:53;20.08;;;10.80;;
17365;SDS011;8800;50.118;9.900;2023-04-07T05:57:20;21.58;;;11.05;;
17365;SDS011;8800;50.118;9.900;2023-04-07T05:59:47;18.23;;;10.07;;
17365;SDS011;8800;50.118;9.900;2023-04-07T06:02:13;20.80;;;10.77;;
17365;SDS011;8800;50.118;9.900;2023-04-07T06:04:41;20.63;;;10.52;;
17365;SDS011;8800;50.118;9.900;2023-04-07T06:07:08;23.55;;;10.00;;
17365;SDS011;8800;50.118;9.900;2023-04-07T06:09:34;21.02;;;11.20;;
17365;SDS011;8800;50.118;9.900;2023-04-07T06:12:01;21.67;;;10.85;;
17365;SDS011;8800;50.118;9.900;2023-04-07T06:14:29;21.98;;;10.98;;
17365;SDS011;8800;50.118;9.900;2023-04-07T06:16:55;22.70;;;11.48;;
17365;SDS011;8800;50.118;9.900;2023-04-07T06:19:21;19.55;;;10.43;;
17365;SDS011;8800;50.118;9.900;2023-04-07T06:21:49;22.23;;;10.63;;
17365;SDS011;8800;50.118;9.900;2023-04-07T06:24:16;22.33;;;11.52;;
17365;SDS011;8800;50.118;9.900;2023-04-07T06:26:43;26.75;;;12.85;;
17365;SDS011;8800;50.118;9.900;2023-04-07T06:29:10;24.42;;;11.45;;
17365;SDS011;8800;50.118;9.900;2023-04-07T06:31:37;24.88;;;11.85;;
17365;SDS011;8800;50.118;9.900;2023-04-07T06:34:03;22.67;;;10.95;;
17365;SDS011;8800;50.118;9.900;2023-04-07T06:36:30;22.77;;;11.18;;
17365;SDS011;8800;50.118;9.900;2023-04-07T06:38:58;23.85;;;12.27;;
17365;SDS011;8800;50.118;9.900;2023-04-07T06:41:24;24.25;;;12.18;;
17365;SDS011;8800;50.118;9.900;2023-04-07T06:43:52;25.70;;;12.07;;
17365;SDS011;8800;50.118;9.900;2023-04-07T06:46:19;24.83;;;12.30;;
17365;SDS011;8800;50.118;9.900;2023-04-07T06:48:45;24.23;;;11.90;;
17365;SDS011;8800;50.118;9.900;2023-04-07T06:51:12;24.77;;;11.93;;
17365;SDS011;8800;50.118;9.900;2023-04-07T06:53:38;26.35;;;12.07;;
17365;SDS011;8800;50.118;9.900;2023-04-07T06:56:08;30.73;;;14.32;;
17365;SDS011;8800;50.118;9.900;2023-04-07T06:58:35;30.65;;;14.93;;
17365;SDS011;8800;50.118;9.900;2023-04-07T07:01:02;26.08;;;12.80;;
17365;SDS011;8800;50.118;9.900;2023-04-07T07:03:29;26.40;;;13.27;;
17365;SDS011;8800;50.118;9.900;2023-04-07T07:05:56;40.40;;;18.92;;
17365;SDS011;8800;50.118;9.900;2023-04-07T07:08:22;34.42;;;16.05;;
17365;SDS011;8800;50.118;9.900;2023-04-07T07:10:49;26.77;;;13.70;;
17365;SDS011;8800;50.118;9.900;2023-04-07T07:13:17;28.75;;;14.25;;
17365;SDS011;8800;50.118;9.900;2023-04-07T07:15:43;32.50;;;14.70;;
17365;SDS011;8800;50.118;9.900;2023-04-07T07:18:10;27.98;;;14.50;;
17365;SDS011;8800;50.118;9.900;2023-04-07T07:20:36;27.02;;;13.45;;
17365;SDS011;8800;50.118;9.900;2023-04-07T07:23:03;33.45;;;15.52;;
17365;SDS011;8800;50.118;9.900;2023-04-07T07:25:29;38.42;;;16.52;;
17365;SDS011;8800;50.118;9.900;2023-04-07T07:27:55;34.95;;;15.77;;
17365;SDS011;8800;50.118;9.900;2023-04-07T07:30:23;43.85;;;18.75;;
17365;SDS011;8800;50.118;9.900;2023-04-07T07:32:50;44.65;;;19.95;;
17365;SDS011;8800;50.118;9.900;2023-04-07T07:35:17;44.30;;;20.33;;
17365;SDS011;8800;50.118;9.900;2023-04-07T07:37:44;32.38;;;16.20;;
17365;SDS011;8800;50.118;9.900;2023-04-07T07:40:10;29.75;;;15.10;;
17365;SDS011;8800;50.118;9.900;2023-04-07T07:42:37;33.17;;;15.60;;
17365;SDS011;8800;50.118;9.900;2023-04-07T07:45:04;28.92;;;14.55;;
17365;SDS011;8800;50.118;9.900;2023-04-07T07:47:32;27.50;;;14.30;;
17365;SDS011;8800;50.118;9.900;2023-04-07T07:49:58;25.25;;;13.52;;
17365;SDS011;8800;50.118;9.900;2023-04-07T07:52:25;28.38;;;14.98;;
17365;SDS011;8800;50.118;9.900;2023-04-07T07:54:51;28.38;;;14.23;;
17365;SDS011;8800;50.118;9.900;2023-04-07T07:57:17;28.35;;;14.40;;
17365;SDS011;8800;50.118;9.900;2023-04-07T07:59:44;28.40;;;14.65;;
17365;SDS011;8800;50.118;9.900;2023-04-07T08:02:10;29.42;;;14.90;;
17365;SDS011;8800;50.118;9.900;2023-04-07T08:04:39;28.08;;;13.57;;
17365;SDS011;8800;50.118;9.900;2023-04-07T08:07:05;31.83;;;15.45;;
17365;SDS011;8800;50.118;9.900;2023-04-07T08:09:31;30.08;;;14.48;;
17365;SDS011;8800;50.118;9.900;2023-04-07T08:11:58;24.33;;;13.68;;
17365;SDS011;8800;50.118;9.900;2023-04-07T08:14:24;27.70;;;14.82;;
17365;SDS011;8800;50.118;9.900;2023-04-07T08:16:51;28.17;;;13.30;;
17365;SDS011;8800;50.118;9.900;2023-04-07T08:19:17;28.67;;;14.95;;
17365;SDS011;8800;50.118;9.900;2023-04-07T08:21:45;28.65;;;13.30;;
17365;SDS011;8800;50.118;9.900;2023-04-07T08:24:11;28.33;;;14.20;;
17365;SDS011;8800;50.118;9.900;2023-04-07T08:26:38;29.70;;;14.55;;
17365;SDS011;8800;50.118;9.900;2023-04-07T08:29:04;27.90;;;14.73;;
17365;SDS011;8800;50.118;9.900;2023-04-07T08:31:31;26.80;;;14.57;;
17365;SDS011;8800;50.118;9.900;2023-04-07T08:33:57;26.67;;;13.98;;
17365;SDS011;8800;50.118;9.900;2023-04-07T08:36:23;27.10;;;14.48;;
17365;SDS011;8800;50.118;9.900;2023-04-07T08:38:51;24.38;;;14.13;;
17365;SDS011;8800;50.118;9.900;2023-04-07T08:41:20;28.50;;;14.20;;
17365;SDS011;8800;50.118;9.900;2023-04-07T08:43:49;24.23;;;13.60;;
17365;SDS011;8800;50.118;9.900;2023-04-07T08:46:17;24.02;;;13.48;;
17365;SDS011;8800;50.118;9.900;2023-04-07T08:48:44;24.10;;;13.82;;
17365;SDS011;8800;50.118;9.900;2023-04-07T08:51:12;26.23;;;14.18;;
17365;SDS011;8800;50.118;9.900;2023-04-07T08:53:40;26.17;;;13.88;;
17365;SDS011;8800;50.118;9.900;2023-04-07T08:56:08;25.50;;;13.93;;
17365;SDS011;8800;50.118;9.900;2023-04-07T08:58:36;27.42;;;14.18;;
17365;SDS011;8800;50.118;9.900;2023-04-07T09:01:03;25.50;;;13.45;;
17365;SDS011;8800;50.118;9.900;2023-04-07T09:03:30;25.63;;;13.63;;
17365;SDS011;8800;50.118;9.900;2023-04-07T09:05:56;27.05;;;14.38;;
17365;SDS011;8800;50.118;9.900;2023-04-07T09:08:23;25.42;;;13.80;;
17365;SDS011;8800;50.118;9.900;2023-04-07T09:10:50;26.48;;;14.30;;
17365;SDS011;8800;50.118;9.900;2023-04-07T09:13:18;28.30;;;14.43;;
17365;SDS011;8800;50.118;9.900;2023-04-07T09:15:44;20.05;;;12.15;;
17365;SDS011;8800;50.118;9.900;2023-04-07T09:18:11;23.98;;;12.75;;
17365;SDS011;8800;50.118;9.900;2023-04-07T09:20:54;23.38;;;13.30;;
17365;SDS011;8800;50.118;9.900;2023-04-07T09:23:28;22.73;;;12.15;;
17365;SDS011;8800;50.118;9.900;2023-04-07T09:25:55;22.30;;;11.88;;
17365;SDS011;8800;50.118;9.900;2023-04-07T09:28:25;22.85;;;12.02;;
17365;SDS011;8800;50.118;9.900;2023-04-07T09:31:03;22.42;;;13.00;;
17365;SDS011;8800;50.118;9.900;2023-04-07T09:33:29;24.58;;;13.20;;
17365;SDS011;8800;50.118;9.900;2023-04-07T09:35:56;18.98;;;11.57;;
17365;SDS011;8800;50.118;9.900;2023-04-07T09:38:22;20.73;;;11.32;;
17365;SDS011;8800;50.118;9.900;2023-04-07T09:41:04;21.02;;;11.35;;
17365;SDS011;8800;50.118;9.900;2023-04-07T09:43:32;21.30;;;12.05;;
17365;SDS011;8800;50.118;9.900;2023-04-07T09:46:05;20.05;;;11.75;;
17365;SDS011;8800;50.118;9.900;2023-04-07T09:48:32;20.60;;;11.90;;
17365;SDS011;8800;50.118;9.900;2023-04-07T09:51:04;19.42;;;11.80;;
17365;SDS011;8800;50.118;9.900;2023-04-07T09:53:36;17.98;;;11.05;;
17365;SDS011;8800;50.118;9.900;2023-04-07T09:56:06;21.92;;;12.32;;
17365;SDS011;8800;50.118;9.900;2023-04-07T09:58:34;22.65;;;12.05;;
17365;SDS011;8800;50.118;9.900;2023-04-07T10:01:01;21.95;;;12.13;;
17365;SDS011;8800;50.118;9.900;2023-04-07T10:03:27;21.80;;;12.23;;
17365;SDS011;8800;50.118;9.900;2023-04-07T10:05:54;18.55;;;11.10;;
17365;SDS011;8800;50.118;9.900;2023-04-07T10:08:20;19.25;;;10.98;;
17365;SDS011;8800;50.118;9.900;2023-04-07T10:10:46;17.60;;;10.73;;
17365;SDS011;8800;50.118;9.900;2023-04-07T10:13:15;21.88;;;12.13;;
17365;SDS011;8800;50.118;9.900;2023-04-07T10:15:43;20.55;;;11.18;;
17365;SDS011;8800;50.118;9.900;2023-04-07T10:18:09;19.95;;;11.15;;
17365;SDS011;8800;50.118;9.900;2023-04-07T10:20:35;20.27;;;11.57;;
17365;SDS011;8800;50.118;9.900;2023-04-07T10:23:07;19.98;;;10.90;;
17365;SDS011;8800;50.118;9.900;2023-04-07T10:25:35;21.02;;;11.48;;
17365;SDS011;8800;50.118;9.900;2023-04-07T10:28:05;20.83;;;11.88;;
17365;SDS011;8800;50.118;9.900;2023-04-07T10:30:31;18.20;;;11.35;;
17365;SDS011;8800;50.118;9.900;2023-04-07T10:32:59;19.98;;;11.88;;
17365;SDS011;8800;50.118;9.900;2023-04-07T10:35:26;20.13;;;12.05;;
17365;SDS011;8800;50.118;9.900;2023-04-07T10:38:09;19.02;;;11.25;;
17365;SDS011;8800;50.118;9.900;2023-04-07T10:40:38;21.45;;;11.77;;
17365;SDS011;8800;50.118;9.900;2023-04-07T10:43:05;20.38;;;11.77;;
17365;SDS011;8800;50.118;9.900;2023-04-07T10:45:54;19.85;;;11.82;;
17365;SDS011;8800;50.118;9.900;2023-04-07T10:48:28;20.25;;;12.05;;
17365;SDS011;8800;50.118;9.900;2023-04-07T10:51:15;23.40;;;12.30;;
17365;SDS011;8800;50.118;9.900;2023-04-07T10:59:15;23.85;;;12.55;;
17365;SDS011;8800;50.118;9.900;2023-04-07T11:01:43;22.17;;;13.00;;
17365;SDS011;8800;50.118;9.900;2023-04-07T11:04:11;25.33;;;13.05;;
17365;SDS011;8800;50.118;9.900;2023-04-07T11:06:45;19.13;;;11.75;;
17365;SDS011;8800;50.118;9.900;2023-04-07T11:09:17;21.70;;;12.32;;
17365;SDS011;8800;50.118;9.900;2023-04-07T11:11:44;21.92;;;11.82;;
17365;SDS011;8800;50.118;9.900;2023-04-07T11:14:23;20.13;;;11.27;;
17365;SDS011;8800;50.118;9.900;2023-04-07T11:16:51;22.77;;;12.82;;
17365;SDS011;8800;50.118;9.900;2023-04-07T11:19:19;25.17;;;13.55;;
17365;SDS011;8800;50.118;9.900;2023-04-07T11:21:45;24.17;;;13.05;;
17365;SDS011;8800;50.118;9.900;2023-04-07T11:26:53;18.30;;;10.63;;
17365;SDS011;8800;50.118;9.900;2023-04-07T11:29:26;21.15;;;11.88;;
17365;SDS011;8800;50.118;9.900;2023-04-07T11:31:53;20.58;;;11.45;;
17365;SDS011;8800;50.118;9.900;2023-04-07T11:34:21;22.38;;;11.75;;
17365;SDS011;8800;50.118;9.900;2023-04-07T11:36:54;21.98;;;12.48;;
17365;SDS011;8800;50.118;9.900;2023-04-07T11:39:24;20.17;;;11.52;;
17365;SDS011;8800;50.118;9.900;2023-04-07T11:41:52;20.75;;;11.90;;
17365;SDS011;8800;50.118;9.900;2023-04-07T11:44:18;22.33;;;11.23;;
17365;SDS011;8800;50.118;9.900;2023-04-07T11:46:52;19.52;;;11.02;;
17365;SDS011;8800;50.118;9.900;2023-04-07T11:49:18;23.73;;;11.95;;
17365;SDS011;8800;50.118;9.900;2023-04-07T11:51:47;19.35;;;10.95;;
17365;SDS011;8800;50.118;9.900;2023-04-07T11:54:13;17.60;;;10.48;;
17365;SDS011;8800;50.118;9.900;2023-04-07T11:56:41;20.20;;;11.20;;
17365;SDS011;8800;50.118;9.900;2023-04-07T11:59:08;21.48;;;11.27;;
17365;SDS011;8800;50.118;9.900;2023-04-07T12:01:38;16.95;;;10.20;;
17365;SDS011;8800;50.118;9.900;2023-04-07T12:04:05;20.05;;;11.02;;
17365;SDS011;8800;50.118;9.900;2023-04-07T12:06:32;18.92;;;11.25;;
17365;SDS011;8800;50.118;9.900;2023-04-07T12:09:00;18.60;;;11.65;;
17365;SDS011;8800;50.118;9.900;2023-04-07T12:11:27;16.90;;;10.95;;
17365;SDS011;8800;50.118;9.900;2023-04-07T12:13:54;19.10;;;11.10;;
17365;SDS011;8800;50.118;9.900;2023-04-07T12:16:21;19.80;;;10.60;;
17365;SDS011;8800;50.118;9.900;2023-04-07T12:18:47;17.02;;;10.27;;
17365;SDS011;8800;50.118;9.900;2023-04-07T12:21:15;17.25;;;10.52;;
17365;SDS011;8800;50.118;9.900;2023-04-07T12:23:42;19.85;;;11.20;;
17365;SDS011;8800;50.118;9.900;2023-04-07T12:26:10;18.08;;;11.05;;
17365;SDS011;8800;50.118;9.900;2023-04-07T12:28:37;17.02;;;10.20;;
17365;SDS011;8800;50.118;9.900;2023-04-07T12:31:03;17.88;;;11.15;;
17365;SDS011;8800;50.118;9.900;2023-04-07T12:33:30;21.13;;;11.45;;
17365;SDS011;8800;50.118;9.900;2023-04-07T12:35:56;18.67;;;10.95;;
17365;SDS011;8800;50.118;9.900;2023-04-07T12:38:23;17.15;;;10.52;;
17365;SDS011;8800;50.118;9.900;2023-04-07T12:40:50;20.23;;;10.90;;
17365;SDS011;8800;50.118;9.900;2023-04-07T12:43:18;17.17;;;10.38;;
17365;SDS011;8800;50.118;9.900;2023-04-07T12:45:45;17.65;;;10.10;;
17365;SDS011;8800;50.118;9.900;2023-04-07T12:48:11;17.75;;;11.00;;
17365;SDS011;8800;50.118;9.900;2023-04-07T12:50:38;16.90;;;10.50;;
17365;SDS011;8800;50.118;9.900;2023-04-07T12:53:04;15.48;;;9.95;;
17365;SDS011;8800;50.118;9.900;2023-04-07T12:55:31;17.42;;;9.77;;
17365;SDS011;8800;50.118;9.900;2023-04-07T12:57:59;16.65;;;10.32;;
17365;SDS011;8800;50.118;9.900;2023-04-07T13:00:27;15.05;;;9.75;;
17365;SDS011;8800;50.118;9.900;2023-04-07T13:02:54;15.98;;;9.95;;
17365;SDS011;8800;50.118;9.900;2023-04-07T13:05:20;17.73;;;10.07;;
17365;SDS011;8800;50.118;9.900;2023-04-07T13:07:47;15.88;;;9.85;;
17365;SDS011;8800;50.118;9.900;2023-04-07T13:10:14;14.60;;;9.30;;
17365;SDS011;8800;50.118;9.900;2023-04-07T13:12:40;17.23;;;10.45;;
17365;SDS011;8800;50.118;9.900;2023-04-07T13:15:07;14.40;;;9.88;;
17365;SDS011;8800;50.118;9.900;2023-04-07T13:17:35;13.68;;;9.73;;
17365;SDS011;8800;50.118;9.900;2023-04-07T13:20:03;14.38;;;9.82;;
17365;SDS011;8800;50.118;9.900;2023-04-07T13:22:29;16.90;;;10.45;;
17365;SDS011;8800;50.118;9.900;2023-04-07T13:24:56;15.13;;;9.60;;
17365;SDS011;8800;50.118;9.900;2023-04-07T13:27:22;14.38;;;9.05;;
17365;SDS011;8800;50.118;9.900;2023-04-07T13:29:49;13.93;;;8.85;;
17365;SDS011;8800;50.118;9.900;2023-04-07T13:32:15;15.20;;;9.02;;
17365;SDS011;8800;50.118;9.900;2023-04-07T13:34:43;14.73;;;9.27;;
17365;SDS011;8800;50.118;9.900;2023-04-07T13:37:10;13.85;;;9.38;;
17365;SDS011;8800;50.118;9.900;2023-04-07T13:39:37;15.05;;;9.20;;
17365;SDS011;8800;50.118;9.900;2023-04-07T13:42:03;13.88;;;9.32;;
17365;SDS011;8800;50.118;9.900;2023-04-07T13:44:30;13.18;;;8.75;;
17365;SDS011;8800;50.118;9.900;2023-04-07T13:46:57;15.55;;;9.65;;
17365;SDS011;8800;50.118;9.900;2023-04-07T13:49:24;14.27;;;8.98;;
17365;SDS011;8800;50.118;9.900;2023-04-07T13:51:52;15.43;;;9.27;;
17365;SDS011;8800;50.118;9.900;2023-04-07T13:54:18;13.23;;;8.07;;
17365;SDS011;8800;50.118;9.900;2023-04-07T13:56:45;13.57;;;8.65;;
17365;SDS011;8800;50.118;9.900;2023-04-07T13:59:13;15.23;;;9.30;;
17365;SDS011;8800;50.118;9.900;2023-04-07T14:01:39;12.90;;;8.82;;
17365;SDS011;8800;50.118;9.900;2023-04-07T14:04:06;11.98;;;8.60;;
17365;SDS011;8800;50.118;9.900;2023-04-07T14:06:32;11.63;;;8.38;;
17365;SDS011;8800;50.118;9.900;2023-04-07T14:09:02;14.27;;;8.65;;
17365;SDS011;8800;50.118;9.900;2023-04-07T14:11:30;18.27;;;12.00;;
17365;SDS011;8800;50.118;9.900;2023-04-07T14:13:56;13.30;;;9.27;;
17365;SDS011;8800;50.118;9.900;2023-04-07T14:16:23;14.18;;;9.82;;
17365;SDS011;8800;50.118;9.900;2023-04-07T14:18:50;14.77;;;9.57;;
17365;SDS011;8800;50.118;9.900;2023-04-07T14:21:16;12.05;;;8.23;;
17365;SDS011;8800;50.118;9.900;2023-04-07T14:23:43;13.48;;;8.73;;
17365;SDS011;8800;50.118;9.900;2023-04-07T14:26:11;12.63;;;8.60;;
17365;SDS011;8800;50.118;9.900;2023-04-07T14:28:37;13.70;;;9.13;;
17365;SDS011;8800;50.118;9.900;2023-04-07T14:31:04;14.93;;;9.35;;
17365;SDS011;8800;50.118;9.900;2023-04-07T14:33:31;13.95;;;9.27;;
17365;SDS011;8800;50.118;9.900;2023-04-07T14:35:57;13.23;;;9.00;;
17365;SDS011;8800;50.118;9.900;2023-04-07T14:38:24;15.23;;;9.20;;
17365;SDS011;8800;50.118;9.900;2023-04-07T14:40:51;16.40;;;9.60;;
17365;SDS011;8800;50.118;9.900;2023-04-07T14:43:19;14.73;;;9.13;;
17365;SDS011;8800;50.118;9.900;2023-04-07T14:45:45;13.18;;;8.57;;
17365;SDS011;8800;50.118;9.900;2023-04-07T14:48:12;13.02;;;8.40;;
17365;SDS011;8800;50.118;9.900;2023-04-07T14:50:38;14.32;;;8.35;;